Station Historical Data
Daily Summary for November 4, 2017 Units:  English    Metric   Both
« Previous Day
Next Day »
Daily Weekly Monthly Yearly Custom
  High: Low: Average:
Temperature: 48.6 °F 34.1 °F 41.3 °F
Dew Point: 38.5 °F 30.9 °F 34.9 °F
Humidity: 90% 67% 78%
Wind Speed: 13.0mph 0.0mph 3.7mph
Wind Gust: 20.0mph - -
Wind- - ENE
Pressure: 30.38 in 30.03 in -
Precipitation: 0.00 in    
Historical Graphs
 
 
Tabular Data for November 4, 2017
Time Temperature Dew Point Pressure Wind Wind Speed Wind Gust Humidity Rainfall Rate (Hourly)
00:04 36.7 °F 31.7 °F 30.35 in Calm     82% 0.00 in
00:09 36.3 °F 31.3 °F 30.35 in Calm     82% 0.00 in
00:14 36.2 °F 31.5 °F 30.35 in Calm     83% 0.00 in
00:19 36.1 °F 31.4 °F 30.35 in Calm     83% 0.00 in
00:24 35.9 °F 31.2 °F 30.35 in Calm     83% 0.00 in
00:29 35.7 °F 31.3 °F 30.36 in Calm     84% 0.00 in
00:34 35.6 °F 31.2 °F 30.36 in Calm     84% 0.00 in
00:39 35.5 °F 31.4 °F 30.37 in Calm     85% 0.00 in
00:44 35.3 °F 31.2 °F 30.37 in Calm     85% 0.00 in
00:49 35.2 °F 31.1 °F 30.36 in Calm     85% 0.00 in
00:54 35.2 °F 31.4 °F 30.36 in Calm     86% 0.00 in
00:59 35.3 °F 31.5 °F 30.36 in Calm     86% 0.00 in
01:04 35.5 °F 31.7 °F 30.36 in Calm     86% 0.00 in
01:09 35.3 °F 31.5 °F 30.36 in Calm     86% 0.00 in
01:14 35.1 °F 31.3 °F 30.36 in Calm     86% 0.00 in
01:19 34.8 °F 31.3 °F 30.36 in Calm     87% 0.00 in
01:24 34.7 °F 31.2 °F 30.36 in Calm     87% 0.00 in
01:29 34.6 °F 31.1 °F 30.36 in Calm     87% 0.00 in
01:34 34.6 °F 31.1 °F 30.36 in Calm     87% 0.00 in
01:39 34.7 °F 31.5 °F 30.36 in Calm     88% 0.00 in
01:44 34.8 °F 31.6 °F 30.35 in Calm     88% 0.00 in
01:49 34.7 °F 31.5 °F 30.36 in Calm     88% 0.00 in
01:54 34.6 °F 31.4 °F 30.36 in Calm     88% 0.00 in
01:59 34.3 °F 31.1 °F 30.36 in Calm     88% 0.00 in
02:04 34.3 °F 31.1 °F 30.36 in Calm     88% 0.00 in
02:09 34.2 °F 31.0 °F 30.36 in Calm     88% 0.00 in
02:14 34.2 °F 31.0 °F 30.36 in Calm     88% 0.00 in
02:19 34.1 °F 30.9 °F 30.36 in Calm     88% 0.00 in
02:24 34.2 °F 31.3 °F 30.36 in Calm     89% 0.00 in
02:29 34.2 °F 31.3 °F 30.36 in Calm     89% 0.00 in
02:34 34.3 °F 31.4 °F 30.36 in Calm     89% 0.00 in
02:39 34.4 °F 31.5 °F 30.36 in Calm     89% 0.00 in
02:44 34.4 °F 31.5 °F 30.36 in Calm     89% 0.00 in
02:49 34.4 °F 31.5 °F 30.36 in Calm     89% 0.00 in
02:54 34.6 °F 31.7 °F 30.35 in Calm     89% 0.00 in
02:59 34.8 °F 31.9 °F 30.35 in Calm     89% 0.00 in
03:04 34.8 °F 31.9 °F 30.35 in Calm     89% 0.00 in
03:09 35.0 °F 32.1 °F 30.34 in Calm     89% 0.00 in
03:14 35.0 °F 32.4 °F 30.35 in Calm     90% 0.00 in
03:19 35.0 °F 32.1 °F 30.35 in Calm     89% 0.00 in
03:24 34.9 °F 32.0 °F 30.35 in Calm     89% 0.00 in
03:29 34.8 °F 31.9 °F 30.35 in Calm     89% 0.00 in
03:34 34.8 °F 31.9 °F 30.35 in Calm     89% 0.00 in
03:39 34.8 °F 31.9 °F 30.35 in Calm     89% 0.00 in
03:44 34.8 °F 32.2 °F 30.35 in Calm     90% 0.00 in
03:49 34.8 °F 32.2 °F 30.35 in Calm     90% 0.00 in
03:54 34.8 °F 32.2 °F 30.35 in Calm     90% 0.00 in
03:59 34.8 °F 32.2 °F 30.34 in Calm     90% 0.00 in
04:04 34.7 °F 31.8 °F 30.35 in Calm     89% 0.00 in
04:09 34.7 °F 31.8 °F 30.35 in Calm     89% 0.00 in
04:14 34.6 °F 31.7 °F 30.35 in Calm     89% 0.00 in
04:19 34.6 °F 31.7 °F 30.36 in Calm     89% 0.00 in
04:24 34.6 °F 31.7 °F 30.36 in Calm     89% 0.00 in
04:29 34.5 °F 31.6 °F 30.36 in Calm     89% 0.00 in
04:34 34.4 °F 31.5 °F 30.36 in Calm     89% 0.00 in
04:39 34.4 °F 31.8 °F 30.36 in Calm     90% 0.00 in
04:44 34.4 °F 31.8 °F 30.36 in Calm     90% 0.00 in
04:49 34.3 °F 31.7 °F 30.37 in Calm     90% 0.00 in
04:54 34.3 °F 31.7 °F 30.37 in Calm     90% 0.00 in
04:59 34.4 °F 31.8 °F 30.37 in Calm     90% 0.00 in
05:04 34.3 °F 31.7 °F 30.37 in Calm     90% 0.00 in
05:09 34.2 °F 31.6 °F 30.38 in Calm     90% 0.00 in
05:14 34.2 °F 31.6 °F 30.38 in Calm     90% 0.00 in
05:19 34.3 °F 31.7 °F 30.37 in Calm     90% 0.00 in
05:24 34.3 °F 31.7 °F 30.37 in Calm     90% 0.00 in
05:29 34.3 °F 31.7 °F 30.37 in Calm     90% 0.00 in
05:34 34.5 °F 31.9 °F 30.36 in Calm     90% 0.00 in
05:39 34.5 °F 31.9 °F 30.36 in Calm     90% 0.00 in
05:44 34.6 °F 32.0 °F 30.36 in Calm     90% 0.00 in
05:49 34.7 °F 32.1 °F 30.36 in Calm     90% 0.00 in
05:54 34.6 °F 32.0 °F 30.36 in Calm     90% 0.00 in
05:59 34.6 °F 32.0 °F 30.36 in Calm     90% 0.00 in
06:04 34.5 °F 31.9 °F 30.36 in Calm     90% 0.00 in
06:09 34.5 °F 31.9 °F 30.36 in Calm     90% 0.00 in
06:14 34.5 °F 31.9 °F 30.35 in Calm     90% 0.00 in
06:19 34.4 °F 31.8 °F 30.35 in Calm     90% 0.00 in
06:24 34.5 °F 31.9 °F 30.35 in Calm     90% 0.00 in
06:29 34.5 °F 31.9 °F 30.35 in Calm     90% 0.00 in
06:34 34.4 °F 31.8 °F 30.35 in Calm     90% 0.00 in
06:39 34.5 °F 31.9 °F 30.35 in Calm     90% 0.00 in
06:44 34.6 °F 32.0 °F 30.36 in Calm     90% 0.00 in
06:49 34.6 °F 32.0 °F 30.36 in Calm     90% 0.00 in
06:54 34.6 °F 32.0 °F 30.36 in Calm     90% 0.00 in
06:59 34.7 °F 32.1 °F 30.35 in Calm     90% 0.00 in
07:04 34.7 °F 32.1 °F 30.36 in Calm     90% 0.00 in
07:14 34.6 °F 32.0 °F 30.35 in Calm     90% 0.00 in
07:19 34.6 °F 32.0 °F 30.35 in Calm     90% 0.00 in
07:29 34.6 °F 32.0 °F 30.35 in Calm   3.0 mph 90% 0.00 in
07:34 34.6 °F 31.7 °F 30.35 in ENE 1.0 mph 4.0 mph 89% 0.00 in
07:39 34.6 °F 31.7 °F 30.34 in ENE 1.0 mph 5.0 mph 89% 0.00 in
07:44 34.6 °F 31.7 °F 30.34 in Calm   4.0 mph 89% 0.00 in
07:49 34.6 °F 31.7 °F 30.34 in Calm     89% 0.00 in
07:54 34.7 °F 31.8 °F 30.34 in Calm   4.0 mph 89% 0.00 in
07:59 34.7 °F 31.8 °F 30.34 in ENE 1.0 mph 4.0 mph 89% 0.00 in
08:04 34.8 °F 31.9 °F 30.34 in Calm   3.0 mph 89% 0.00 in
08:09 35.0 °F 32.1 °F 30.34 in East 2.0 mph 3.0 mph 89% 0.00 in
08:14 35.1 °F 32.2 °F 30.34 in Calm   3.0 mph 89% 0.00 in
08:19 35.3 °F 32.4 °F 30.34 in Calm   2.0 mph 89% 0.00 in
08:24 35.5 °F 32.6 °F 30.33 in Calm   5.0 mph 89% 0.00 in
08:29 35.7 °F 32.5 °F 30.33 in East 1.0 mph 5.0 mph 88% 0.00 in
08:34 36.0 °F 32.8 °F 30.33 in ESE 1.0 mph 3.0 mph 88% 0.00 in
08:39 36.2 °F 33.0 °F 30.33 in Calm   3.0 mph 88% 0.00 in
08:44 36.5 °F 33.3 °F 30.34 in Calm   3.0 mph 88% 0.00 in
08:49 36.8 °F 33.3 °F 30.34 in Calm   2.0 mph 87% 0.00 in
08:54 37.2 °F 33.7 °F 30.34 in Calm   2.0 mph 87% 0.00 in
08:59 37.5 °F 34.0 °F 30.34 in Calm   2.0 mph 87% 0.00 in
09:04 38.0 °F 34.5 °F 30.34 in ENE 1.0 mph 5.0 mph 87% 0.00 in
09:09 38.5 °F 34.7 °F 30.34 in ENE 3.0 mph 7.0 mph 86% 0.00 in
09:14 38.8 °F 34.7 °F 30.34 in ENE 3.0 mph 7.0 mph 85% 0.00 in
09:19 39.1 °F 34.7 °F 30.34 in NE 5.0 mph 8.0 mph 84% 0.00 in
09:24 39.4 °F 34.7 °F 30.34 in ENE 11.0 mph 11.0 mph 83% 0.00 in
09:29 39.7 °F 35.0 °F 30.34 in ENE 3.0 mph 10.0 mph 83% 0.00 in
09:34 40.0 °F 34.9 °F 30.34 in NE 5.0 mph 11.0 mph 82% 0.00 in
09:39 40.2 °F 34.8 °F 30.34 in ENE 5.0 mph 10.0 mph 81% 0.00 in
09:44 40.5 °F 35.1 °F 30.34 in ENE 5.0 mph 10.0 mph 81% 0.00 in
09:49 40.8 °F 35.4 °F 30.34 in NE 4.0 mph 8.0 mph 81% 0.00 in
09:54 41.0 °F 35.3 °F 30.33 in ENE 4.0 mph 9.0 mph 80% 0.00 in
09:59 41.2 °F 35.5 °F 30.34 in NE 5.0 mph 10.0 mph 80% 0.00 in
10:04 41.4 °F 35.4 °F 30.34 in ENE 5.0 mph 10.0 mph 79% 0.00 in
10:09 41.6 °F 35.6 °F 30.34 in ENE 5.0 mph 10.0 mph 79% 0.00 in
10:14 41.7 °F 35.3 °F 30.34 in ENE 5.0 mph 13.0 mph 78% 0.00 in
10:19 41.9 °F 35.2 °F 30.34 in NNE 6.0 mph 11.0 mph 77% 0.00 in
10:24 42.0 °F 35.3 °F 30.34 in NE 4.0 mph 12.0 mph 77% 0.00 in
10:29 42.2 °F 35.5 °F 30.34 in ESE 4.0 mph 12.0 mph 77% 0.00 in
10:39 42.7 °F 35.7 °F 30.33 in ENE 4.0 mph 11.0 mph 76% 0.00 in
10:44 42.9 °F 35.9 °F 30.33 in ENE 5.0 mph 13.0 mph 76% 0.00 in
10:49 43.0 °F 35.6 °F 30.33 in ENE 5.0 mph 13.0 mph 75% 0.00 in
10:54 43.2 °F 36.1 °F 30.33 in ENE 5.0 mph 14.0 mph 76% 0.00 in
10:59 43.2 °F 35.8 °F 30.33 in ENE 3.0 mph 13.0 mph 75% 0.00 in
11:04 43.5 °F 36.1 °F 30.32 in ENE 4.0 mph 10.0 mph 75% 0.00 in
11:09 43.5 °F 36.1 °F 30.33 in ENE 7.0 mph 13.0 mph 75% 0.00 in
11:14 43.7 °F 36.3 °F 30.32 in ENE 6.0 mph 13.0 mph 75% 0.00 in
11:19 44.0 °F 36.2 °F 30.32 in NE 3.0 mph 9.0 mph 74% 0.00 in
11:24 44.2 °F 36.1 °F 30.32 in ENE 4.0 mph 11.0 mph 73% 0.00 in
11:29 44.6 °F 36.5 °F 30.32 in ENE 4.0 mph 11.0 mph 73% 0.00 in
11:34 44.8 °F 36.7 °F 30.31 in East 8.0 mph 11.0 mph 73% 0.00 in
11:39 44.8 °F 36.0 °F 30.31 in East 9.0 mph 14.0 mph 71% 0.00 in
11:44 45.0 °F 36.5 °F 30.31 in ENE 3.0 mph 11.0 mph 72% 0.00 in
11:49 45.1 °F 36.3 °F 30.31 in ENE 7.0 mph 15.0 mph 71% 0.00 in
11:54 45.1 °F 36.3 °F 30.31 in ENE 6.0 mph 15.0 mph 71% 0.00 in
11:59 45.4 °F 36.5 °F 30.31 in ENE 6.0 mph 12.0 mph 71% 0.00 in
12:04 45.3 °F 36.1 °F 30.30 in ENE 6.0 mph 15.0 mph 70% 0.00 in
12:09 45.5 °F 36.3 °F 30.30 in ENE 8.0 mph 20.0 mph 70% 0.00 in
12:14 45.5 °F 36.3 °F 30.30 in ENE 8.0 mph 20.0 mph 70% 0.00 in
12:19 45.5 °F 35.9 °F 30.30 in East 6.0 mph 19.0 mph 69% 0.00 in
12:24 45.5 °F 35.9 °F 30.30 in NE 6.0 mph 14.0 mph 69% 0.00 in
12:29 45.7 °F 36.1 °F 30.30 in ENE 7.0 mph 14.0 mph 69% 0.00 in
12:34 45.7 °F 36.1 °F 30.30 in East 6.0 mph 15.0 mph 69% 0.00 in
12:39 45.8 °F 36.2 °F 30.30 in ENE 11.0 mph 18.0 mph 69% 0.00 in
12:44 45.8 °F 36.2 °F 30.29 in ENE 7.0 mph 18.0 mph 69% 0.00 in
12:49 46.0 °F 36.4 °F 30.29 in NE 4.0 mph 16.0 mph 69% 0.00 in
12:54 46.0 °F 36.4 °F 30.29 in ENE 7.0 mph 16.0 mph 69% 0.00 in
12:59 46.3 °F 36.7 °F 30.29 in ENE 6.0 mph 16.0 mph 69% 0.00 in
13:04 46.3 °F 36.7 °F 30.28 in ENE 5.0 mph 11.0 mph 69% 0.00 in
13:09 46.4 °F 36.8 °F 30.29 in ENE 6.0 mph 13.0 mph 69% 0.00 in
13:14 46.5 °F 36.9 °F 30.28 in ENE 5.0 mph 13.0 mph 69% 0.00 in
13:19 46.7 °F 36.7 °F 30.28 in East 5.0 mph 11.0 mph 68% 0.00 in
13:24 46.9 °F 36.5 °F 30.28 in NNE 6.0 mph 14.0 mph 67% 0.00 in
13:29 46.9 °F 36.9 °F 30.28 in ENE 7.0 mph 14.0 mph 68% 0.00 in
13:34 46.9 °F 36.5 °F 30.27 in ENE 11.0 mph 14.0 mph 67% 0.00 in
13:39 47.0 °F 37.0 °F 30.27 in ENE 10.0 mph 11.0 mph 68% 0.00 in
13:44 46.9 °F 36.5 °F 30.27 in ESE 7.0 mph 16.0 mph 67% 0.00 in
13:49 47.4 °F 37.4 °F 30.27 in NE 10.0 mph 10.0 mph 68% 0.00 in
13:54 47.8 °F 37.4 °F 30.26 in ENE 5.0 mph 16.0 mph 67% 0.00 in
13:59 48.6 °F 38.5 °F 30.26 in East 11.0 mph 15.0 mph 68% 0.00 in
14:04 48.1 °F 37.7 °F 30.26 in East 6.0 mph 15.0 mph 67% 0.00 in
14:09 47.9 °F 37.5 °F 30.25 in East 7.0 mph 15.0 mph 67% 0.00 in
14:14 47.6 °F 37.6 °F 30.25 in East 7.0 mph 14.0 mph 68% 0.00 in
14:19 47.6 °F 37.2 °F 30.24 in ENE 7.0 mph 14.0 mph 67% 0.00 in
14:24 47.4 °F 37.4 °F 30.24 in ENE 7.0 mph 15.0 mph 68% 0.00 in
14:29 47.4 °F 37.4 °F 30.24 in ENE 8.0 mph 12.0 mph 68% 0.00 in
14:34 47.6 °F 37.6 °F 30.24 in ENE 7.0 mph 14.0 mph 68% 0.00 in
14:39 47.9 °F 37.8 °F 30.23 in ENE 3.0 mph 13.0 mph 68% 0.00 in
14:44 47.9 °F 37.8 °F 30.23 in East 10.0 mph 15.0 mph 68% 0.00 in
14:49 48.1 °F 38.0 °F 30.23 in NE 8.0 mph 14.0 mph 68% 0.00 in
14:54 48.3 °F 38.2 °F 30.23 in NE 9.0 mph 13.0 mph 68% 0.00 in
14:59 48.3 °F 38.2 °F 30.22 in NE 12.0 mph 15.0 mph 68% 0.00 in
15:04 48.3 °F 37.8 °F 30.22 in SE 5.0 mph 15.0 mph 67% 0.00 in
15:09 48.5 °F 38.4 °F 30.21 in ENE 7.0 mph 15.0 mph 68% 0.00 in
15:14 48.3 °F 38.2 °F 30.21 in ENE 7.0 mph 16.0 mph 68% 0.00 in
15:19 48.3 °F 38.2 °F 30.21 in ENE 7.0 mph 16.0 mph 68% 0.00 in
15:24 48.3 °F 38.2 °F 30.20 in ENE 7.0 mph 13.0 mph 68% 0.00 in
15:29 48.6 °F 38.5 °F 30.20 in ENE 7.0 mph 14.0 mph 68% 0.00 in
15:34 48.4 °F 37.9 °F 30.20 in NE 9.0 mph 20.0 mph 67% 0.00 in
15:39 48.0 °F 37.9 °F 30.20 in ENE 9.0 mph 20.0 mph 68% 0.00 in
15:44 47.8 °F 37.7 °F 30.20 in ENE 9.0 mph 19.0 mph 68% 0.00 in
15:49 47.5 °F 37.8 °F 30.20 in ENE 5.0 mph 15.0 mph 69% 0.00 in
15:54 47.9 °F 38.2 °F 30.19 in East 10.0 mph 13.0 mph 69% 0.00 in
15:59 48.2 °F 38.5 °F 30.19 in ESE 3.0 mph 12.0 mph 69% 0.00 in
16:04 48.2 °F 38.1 °F 30.18 in NE 7.0 mph 17.0 mph 68% 0.00 in
16:09 48.2 °F 38.1 °F 30.18 in ENE 8.0 mph 17.0 mph 68% 0.00 in
16:14 48.3 °F 37.8 °F 30.19 in ENE 8.0 mph 16.0 mph 67% 0.00 in
16:19 48.2 °F 38.1 °F 30.18 in ENE 7.0 mph 16.0 mph 68% 0.00 in
16:24 48.3 °F 38.2 °F 30.18 in ENE 3.0 mph 15.0 mph 68% 0.00 in
16:29 47.9 °F 37.8 °F 30.18 in NE 7.0 mph 15.0 mph 68% 0.00 in
16:34 47.9 °F 37.8 °F 30.18 in NE 11.0 mph 17.0 mph 68% 0.00 in
16:39 48.0 °F 37.9 °F 30.18 in NE 6.0 mph 16.0 mph 68% 0.00 in
16:44 47.6 °F 37.6 °F 30.18 in ENE 9.0 mph 16.0 mph 68% 0.00 in
16:49 47.4 °F 37.4 °F 30.18 in ENE 8.0 mph 17.0 mph 68% 0.00 in
16:54 47.1 °F 37.4 °F 30.17 in ENE 7.0 mph 17.0 mph 69% 0.00 in
16:59 47.1 °F 37.4 °F 30.17 in NE 6.0 mph 14.0 mph 69% 0.00 in
17:04 47.1 °F 37.4 °F 30.17 in ENE 13.0 mph 15.0 mph 69% 0.00 in
17:09 46.9 °F 36.9 °F 30.17 in ENE 8.0 mph 17.0 mph 68% 0.00 in
17:14 46.7 °F 37.1 °F 30.17 in East 10.0 mph 14.0 mph 69% 0.00 in
17:19 46.6 °F 37.0 °F 30.17 in ENE 8.0 mph 17.0 mph 69% 0.00 in
17:24 46.5 °F 36.9 °F 30.17 in ENE 5.0 mph 14.0 mph 69% 0.00 in
17:29 46.3 °F 36.7 °F 30.17 in NE 6.0 mph 13.0 mph 69% 0.00 in
17:34 46.2 °F 36.6 °F 30.18 in East 6.0 mph 12.0 mph 69% 0.00 in
17:39 46.0 °F 36.8 °F 30.17 in ENE 9.0 mph 15.0 mph 70% 0.00 in
17:44 45.9 °F 36.7 °F 30.17 in ENE 9.0 mph 17.0 mph 70% 0.00 in
17:49 45.8 °F 36.6 °F 30.17 in ENE 7.0 mph 17.0 mph 70% 0.00 in
17:54 45.5 °F 36.3 °F 30.17 in ENE 6.0 mph 14.0 mph 70% 0.00 in
17:59 45.4 °F 36.2 °F 30.17 in ENE 6.0 mph 18.0 mph 70% 0.00 in
18:04 45.2 °F 36.4 °F 30.17 in ENE 6.0 mph 18.0 mph 71% 0.00 in
18:09 45.1 °F 36.3 °F 30.17 in ENE 6.0 mph 13.0 mph 71% 0.00 in
18:14 45.1 °F 36.3 °F 30.17 in ENE 6.0 mph 13.0 mph 71% 0.00 in
18:19 44.9 °F 36.1 °F 30.17 in ENE 5.0 mph 10.0 mph 71% 0.00 in
18:24 44.9 °F 36.1 °F 30.17 in ENE 8.0 mph 11.0 mph 71% 0.00 in
18:29 44.8 °F 36.0 °F 30.17 in East 6.0 mph 11.0 mph 71% 0.00 in
18:34 44.7 °F 36.2 °F 30.17 in ENE 4.0 mph 11.0 mph 72% 0.00 in
18:39 44.7 °F 36.2 °F 30.16 in ENE 7.0 mph 10.0 mph 72% 0.00 in
18:44 44.6 °F 36.1 °F 30.16 in NE 6.0 mph 11.0 mph 72% 0.00 in
18:49 44.6 °F 36.1 °F 30.16 in NE 5.0 mph 11.0 mph 72% 0.00 in
18:54 44.6 °F 36.5 °F 30.16 in East 6.0 mph 9.0 mph 73% 0.00 in
18:59 44.7 °F 36.6 °F 30.17 in ENE 5.0 mph 14.0 mph 73% 0.00 in
19:04 44.7 °F 36.6 °F 30.17 in ENE 6.0 mph 15.0 mph 73% 0.00 in
19:09 44.7 °F 36.6 °F 30.16 in ENE 6.0 mph 15.0 mph 73% 0.00 in
19:14 44.7 °F 36.6 °F 30.16 in ENE 7.0 mph 19.0 mph 73% 0.00 in
19:19 44.7 °F 36.6 °F 30.16 in ENE 7.0 mph 19.0 mph 73% 0.00 in
19:24 44.6 °F 36.5 °F 30.16 in ENE 8.0 mph 12.0 mph 73% 0.00 in
19:29 44.6 °F 36.5 °F 30.16 in ENE 5.0 mph 10.0 mph 73% 0.00 in
19:34 44.6 °F 36.5 °F 30.16 in ENE 7.0 mph 13.0 mph 73% 0.00 in
19:39 44.6 °F 36.5 °F 30.15 in ENE 7.0 mph 11.0 mph 73% 0.00 in
19:44 44.6 °F 36.5 °F 30.15 in NE 6.0 mph 13.0 mph 73% 0.00 in
19:49 44.6 °F 36.8 °F 30.15 in NE 8.0 mph 11.0 mph 74% 0.00 in
19:54 44.5 °F 36.7 °F 30.15 in NE 10.0 mph 11.0 mph 74% 0.00 in
19:59 44.5 °F 36.7 °F 30.15 in ENE 4.0 mph 14.0 mph 74% 0.00 in
20:04 44.4 °F 36.6 °F 30.14 in ENE 6.0 mph 14.0 mph 74% 0.00 in
20:09 44.4 °F 36.6 °F 30.14 in ENE 6.0 mph 13.0 mph 74% 0.00 in
20:14 44.4 °F 36.6 °F 30.14 in ENE 6.0 mph 13.0 mph 74% 0.00 in
20:19 44.5 °F 36.7 °F 30.14 in ENE 6.0 mph 13.0 mph 74% 0.00 in
20:24 44.4 °F 36.6 °F 30.14 in ENE 6.0 mph 12.0 mph 74% 0.00 in
20:29 44.4 °F 36.6 °F 30.14 in ENE 6.0 mph 13.0 mph 74% 0.00 in
20:34 44.5 °F 36.7 °F 30.13 in NE 5.0 mph 11.0 mph 74% 0.00 in
20:39 44.4 °F 36.6 °F 30.13 in NE 2.0 mph 10.0 mph 74% 0.00 in
20:44 44.4 °F 36.6 °F 30.12 in ENE 10.0 mph 13.0 mph 74% 0.00 in
20:49 44.4 °F 36.6 °F 30.13 in ENE 2.0 mph 12.0 mph 74% 0.00 in
20:54 44.4 °F 36.6 °F 30.12 in NE 7.0 mph 12.0 mph 74% 0.00 in
20:59 44.4 °F 36.6 °F 30.12 in NE 5.0 mph 10.0 mph 74% 0.00 in
21:04 44.4 °F 36.6 °F 30.11 in NE 11.0 mph 11.0 mph 74% 0.00 in
21:09 44.4 °F 36.6 °F 30.12 in ENE 6.0 mph 12.0 mph 74% 0.00 in
21:14 44.5 °F 36.7 °F 30.12 in NE 6.0 mph 12.0 mph 74% 0.00 in
21:19 44.4 °F 36.6 °F 30.12 in ENE 5.0 mph 11.0 mph 74% 0.00 in
21:24 44.5 °F 36.7 °F 30.12 in ENE 5.0 mph 9.0 mph 74% 0.00 in
21:29 44.5 °F 36.7 °F 30.11 in ENE 5.0 mph 10.0 mph 74% 0.00 in
21:34 44.5 °F 36.7 °F 30.11 in ENE 6.0 mph 11.0 mph 74% 0.00 in
21:39 44.4 °F 36.6 °F 30.10 in ENE 3.0 mph 11.0 mph 74% 0.00 in
21:44 44.4 °F 36.6 °F 30.10 in ENE 5.0 mph 14.0 mph 74% 0.00 in
21:49 44.5 °F 36.7 °F 30.09 in ENE 3.0 mph 11.0 mph 74% 0.00 in
21:54 44.5 °F 36.7 °F 30.08 in ENE 7.0 mph 9.0 mph 74% 0.00 in
21:59 44.4 °F 36.6 °F 30.08 in East 8.0 mph 10.0 mph 74% 0.00 in
22:04 44.4 °F 36.6 °F 30.07 in East 5.0 mph 9.0 mph 74% 0.00 in
22:09 44.4 °F 36.6 °F 30.07 in NE 4.0 mph 11.0 mph 74% 0.00 in
22:14 44.4 °F 36.6 °F 30.07 in ENE 4.0 mph 9.0 mph 74% 0.00 in
22:19 44.4 °F 36.6 °F 30.06 in East 5.0 mph 10.0 mph 74% 0.00 in
22:24 44.5 °F 36.7 °F 30.05 in East 4.0 mph 10.0 mph 74% 0.00 in
22:29 44.5 °F 36.7 °F 30.06 in East 4.0 mph 10.0 mph 74% 0.00 in
22:34 44.4 °F 36.6 °F 30.07 in ENE 2.0 mph 10.0 mph 74% 0.00 in
22:39 44.3 °F 36.5 °F 30.06 in NE 4.0 mph 5.0 mph 74% 0.00 in
22:44 44.3 °F 36.5 °F 30.06 in NE 4.0 mph 7.0 mph 74% 0.00 in
22:49 44.3 °F 36.5 °F 30.05 in NE 4.0 mph 6.0 mph 74% 0.00 in
22:54 44.2 °F 36.8 °F 30.04 in ENE 1.0 mph 7.0 mph 75% 0.00 in
22:59 44.2 °F 36.8 °F 30.04 in ENE 2.0 mph 5.0 mph 75% 0.00 in
23:04 44.3 °F 36.9 °F 30.04 in East 3.0 mph 7.0 mph 75% 0.00 in
23:09 44.4 °F 37.0 °F 30.04 in NE 2.0 mph 5.0 mph 75% 0.00 in
23:15 44.6 °F 37.2 °F 30.05 in ENE 2.0 mph 5.0 mph 75% 0.00 in
23:24 44.6 °F 37.2 °F 30.05 in Calm   2.0 mph 75% 0.00 in
23:29 44.6 °F 37.2 °F 30.05 in Calm   3.0 mph 75% 0.00 in
23:34 44.8 °F 37.4 °F 30.05 in Calm   3.0 mph 75% 0.00 in
23:39 45.0 °F 37.6 °F 30.04 in ENE 1.0 mph 3.0 mph 75% 0.00 in
23:44 45.3 °F 37.5 °F 30.04 in ENE 2.0 mph 3.0 mph 74% 0.00 in
23:49 45.4 °F 37.6 °F 30.04 in Calm   4.0 mph 74% 0.00 in
23:54 45.5 °F 37.7 °F 30.04 in NE 1.0 mph 4.0 mph 74% 0.00 in
23:59 45.6 °F 37.8 °F 30.03 in Calm     74% 0.00 in
Buffalo, New York, USA
Compliments of Weather Underground - 2.5 mb